This is the latest recevied weather packets stored in our database for station/object SP1BMW-13. If no packets are shown the sender has not sent any weather packets the latest 10 day(s).
| Time | Temp. | Humidity | Pressure | Rain* | Wind** | Luminosity | Snow |
|---|---|---|---|---|---|---|---|
| 1787740813 | 22.78° C | 52% | 1021.4 hPa | 0 mm | 1.79 m/s, 94° | 680 W/m² | - |
| 1787740752 | 22.78° C | 51% | 1021.7 hPa | 0 mm | 1.79 m/s, 90° | 695 W/m² | - |
| 1787740692 | 22.78° C | 50% | 1021.5 hPa | 0 mm | 2.68 m/s, 43° | 668 W/m² | - |
| 1787740632 | 23.33° C | 51% | 1021.7 hPa | 0 mm | 0.89 m/s, 47° | 134 W/m² | - |
| 1787740572 | 23.33° C | 52% | 1021.7 hPa | 0 mm | 1.79 m/s, 64° | 694 W/m² | - |
| 1787740513 | 23.33° C | 52% | 1021.6 hPa | 0 mm | 0.45 m/s, 83° | 653 W/m² | - |
| 1787740453 | 23.33° C | 50% | 1021.5 hPa | 0 mm | 2.24 m/s, 36° | 127 W/m² | - |
| 1787740393 | 23.33° C | 50% | 1021.6 hPa | 0 mm | 0.89 m/s, 33° | 649 W/m² | - |
| 1787740332 | 23.33° C | 49% | 1021.7 hPa | 0 mm | 2.68 m/s, 31° | 647 W/m² | - |
| 1787740273 | 23.33° C | 48% | 1021.7 hPa | 0 mm | 2.68 m/s, 42° | 669 W/m² | - |
| 1787740212 | 23.33° C | 51% | 1021.9 hPa | 0 mm | 0.89 m/s, 31° | 675 W/m² | - |
| 1787740153 | 23.33° C | 52% | 1021.7 hPa | 0 mm | 2.24 m/s, 62° | 673 W/m² | - |
| 1787740093 | 23.33° C | 53% | 1021.7 hPa | 0 mm | 1.34 m/s, 52° | 671 W/m² | - |
| 1787740033 | 23.33° C | 52% | 1021.8 hPa | 0 mm | 1.34 m/s, 35° | 665 W/m² | - |
| 1787739974 | 23.33° C | 52% | 1021.7 hPa | 0 mm | 2.24 m/s, 22° | 658 W/m² | - |
| 1787739913 | 23.33° C | 52% | 1021.7 hPa | 0 mm | 0.89 m/s, 31° | 652 W/m² | - |
| 1787739853 | 23.33° C | 52% | 1021.7 hPa | 0 mm | 1.34 m/s, 31° | 654 W/m² | - |
| 1787739793 | 23.33° C | 50% | 1021.8 hPa | 0 mm | 1.79 m/s, 41° | 657 W/m² | - |
| 1787739733 | 23.33° C | 51% | 1021.8 hPa | 0 mm | 0.89 m/s, 24° | 675 W/m² | - |
| 1787739673 | 23.33° C | 50% | 1021.5 hPa | 0 mm | 2.68 m/s, 35° | 207 W/m² | - |
| 1787739613 | 23.33° C | 50% | 1021.6 hPa | 0 mm | 2.68 m/s, 55° | 678 W/m² | - |
| 1787739553 | 23.33° C | 52% | 1021.6 hPa | 0 mm | 0.45 m/s, 90° | 599 W/m² | - |
| 1787739493 | 23.33° C | 52% | 1021.7 hPa | 0 mm | 0.89 m/s, 332° | 660 W/m² | - |
| 1787739433 | 23.33° C | 51% | 1021.7 hPa | 0 mm | 1.34 m/s, 45° | 636 W/m² | - |
| 1787739373 | 23.33° C | 52% | 1021.7 hPa | 0 mm | 1.34 m/s, 54° | 635 W/m² | - |
* Rain latest hour (hover to see other rain measurements)
** Current wind speed in m/s (hover to see current wind gust speed)